createdAt,value
2018-10-11T00:00:48.144Z,93.79
2018-10-11T00:01:48.135Z,93.6
2018-10-11T00:02:48.629Z,93.5
2018-10-11T00:03:48.370Z,93.7
2018-10-11T00:04:48.366Z,93.41
2018-10-11T00:05:48.356Z,93.6
2018-10-11T00:06:48.349Z,93.7
2018-10-11T00:07:48.342Z,93.5
2018-10-11T00:08:48.332Z,93.41
2018-10-11T00:09:48.326Z,93.6
2018-10-11T00:10:48.066Z,93.31
2018-10-11T00:11:48.315Z,93.31
2018-10-11T00:12:48.306Z,93.21
2018-10-11T00:13:48.297Z,93.31
2018-10-11T00:14:48.291Z,93.41
2018-10-11T00:15:48.285Z,93.31
2018-10-11T00:16:48.274Z,93.41
2018-10-11T00:17:48.014Z,93.26
2018-10-11T00:18:48.263Z,93.36
2018-10-11T00:19:48.046Z,93.16
2018-10-11T00:20:47.996Z,93.02
2018-10-11T00:21:48.237Z,93.31
2018-10-11T00:22:48.231Z,93.31
2018-10-11T00:23:48.222Z,93.5
2018-10-11T00:24:48.214Z,93.31
2018-10-11T00:25:48.207Z,93.12
2018-10-11T00:26:48.198Z,93.6
2018-10-11T00:27:48.190Z,93.31
2018-10-11T00:28:48.184Z,93.31
2018-10-11T00:29:48.174Z,93.31
2018-10-11T00:30:48.622Z,93.12
2018-10-11T00:31:48.169Z,93.31
2018-10-11T00:32:48.156Z,93.6
2018-10-11T00:33:48.395Z,93.6
2018-10-11T00:34:47.886Z,93.6
2018-10-11T00:35:48.131Z,93.6
2018-10-11T00:36:48.131Z,93.41
2018-10-11T00:37:48.116Z,93.31
2018-10-11T00:38:48.116Z,93.31
2018-10-11T00:39:48.101Z,93.6
2018-10-11T00:40:48.091Z,93.41
2018-10-11T00:41:47.833Z,93.36
2018-10-11T00:42:48.078Z,93.5
2018-10-11T00:43:48.077Z,93.5
2018-10-11T00:44:48.063Z,93.55
2018-10-11T00:45:48.053Z,93.55
2018-10-11T00:46:48.045Z,93.6
2018-10-11T00:47:48.039Z,93.79
2018-10-11T00:48:47.777Z,93.46
2018-10-11T00:49:48.023Z,93.74
2018-10-11T00:50:48.015Z,93.6
2018-10-11T00:51:48.009Z,93.55
2018-10-11T00:52:47.747Z,93.55
2018-10-11T00:53:47.992Z,93.46
2018-10-11T00:54:47.990Z,93.55
2018-10-11T00:55:47.978Z,93.55
2018-10-11T00:56:47.972Z,93.65
2018-10-11T00:57:47.963Z,93.74
2018-10-11T00:58:47.955Z,93.65
2018-10-11T00:59:47.946Z,93.84
2018-10-11T01:00:47.943Z,93.55
2018-10-11T01:01:47.934Z,93.84
2018-10-11T01:02:47.922Z,93.55
2018-10-11T01:03:47.911Z,93.65
2018-10-11T01:04:47.911Z,93.55
2018-10-11T01:05:47.903Z,93.84
2018-10-11T01:06:47.891Z,93.55
2018-10-11T01:07:47.629Z,93.51
2018-10-11T01:08:47.623Z,93.6
2018-10-11T01:09:47.891Z,93.55
2018-10-11T01:10:47.866Z,93.55
2018-10-11T01:11:47.851Z,93.31
2018-10-11T01:12:47.843Z,93.6
2018-10-11T01:13:47.833Z,93.41
2018-10-11T01:14:47.829Z,93.22
2018-10-11T01:15:47.820Z,93.6
2018-10-11T01:16:47.811Z,93.22
2018-10-11T01:17:47.550Z,93.6
2018-10-11T01:18:47.543Z,93.31
2018-10-11T01:19:47.790Z,93.31
2018-10-11T01:20:47.779Z,93.22
2018-10-11T01:21:47.772Z,93.41
2018-10-11T01:22:47.765Z,93.41
2018-10-11T01:23:47.832Z,93.12
2018-10-11T01:24:47.749Z,93.31
2018-10-11T01:25:47.489Z,93.31
2018-10-11T01:26:47.478Z,92.93
2018-10-11T01:27:47.761Z,93.41
2018-10-11T01:28:47.713Z,93.41
2018-10-11T01:29:48.006Z,93.22
2018-10-11T01:30:47.447Z,93.41
2018-10-11T01:31:47.695Z,92.74
2018-10-11T01:32:47.681Z,92.55
2018-10-11T01:33:47.674Z,92.83
2018-10-11T01:34:47.414Z,92.74
2018-10-11T01:35:47.658Z,92.93
2018-10-11T01:36:47.648Z,92.93
2018-10-11T01:37:47.640Z,92.74
2018-10-11T01:38:47.787Z,92.74
2018-10-11T01:39:47.624Z,92.69
2018-10-11T01:40:47.615Z,92.93
2018-10-11T01:41:47.355Z,92.88
2018-10-11T01:42:47.598Z,92.88
2018-10-11T01:43:47.588Z,92.79
2018-10-11T01:44:47.583Z,92.69
2018-10-11T01:45:47.574Z,92.6
2018-10-11T01:46:47.564Z,92.69
2018-10-11T01:47:47.556Z,92.5
2018-10-11T01:48:47.296Z,92.79
2018-10-11T01:49:47.541Z,92.69
2018-10-11T01:50:47.531Z,92.79
2018-10-11T01:51:47.524Z,92.79
2018-10-11T01:52:47.515Z,92.79
2018-10-11T01:53:47.507Z,92.12
2018-10-11T01:54:47.498Z,92.22
2018-10-11T01:55:47.492Z,92.22
2018-10-11T01:56:47.660Z,92.6
2018-10-11T01:57:47.220Z,92.12
2018-10-11T01:58:47.212Z,92.22
2018-10-11T01:59:47.206Z,92.12
2018-10-11T02:00:47.450Z,92.03
2018-10-11T02:01:47.440Z,92.22
2018-10-11T02:02:47.178Z,92.12
2018-10-11T02:03:47.425Z,92.12
2018-10-11T02:04:47.413Z,92.03
2018-10-11T02:05:47.153Z,92.22
2018-10-11T02:06:47.397Z,92.12
2018-10-11T02:07:47.390Z,91.93
2018-10-11T02:08:47.380Z,92.03
2018-10-11T02:09:47.120Z,92.32
2018-10-11T02:10:47.366Z,92.22
2018-10-11T02:11:47.357Z,92.88
2018-10-11T02:12:47.092Z,92.12
2018-10-11T02:13:47.344Z,92.32
2018-10-11T02:14:47.329Z,92.03
2018-10-11T02:15:47.318Z,91.74
2018-10-11T02:16:47.057Z,92.12
2018-10-11T02:17:47.301Z,92.03
2018-10-11T02:18:47.291Z,92.22
2018-10-11T02:19:47.281Z,92.22
2018-10-11T02:20:47.280Z,92.12
2018-10-11T02:21:47.267Z,91.93
2018-10-11T02:22:47.264Z,92.12
2018-10-11T02:23:47.259Z,92.41
2018-10-11T02:24:47.244Z,92.03
2018-10-11T02:25:47.237Z,92.41
2018-10-11T02:26:47.225Z,92.08
2018-10-11T02:27:47.215Z,92.12
2018-10-11T02:28:47.212Z,92.08
2018-10-11T02:29:47.206Z,92.03
2018-10-11T02:30:47.192Z,92.36
2018-10-11T02:31:47.212Z,92.27
2018-10-11T02:32:47.169Z,92.32
2018-10-11T02:33:46.910Z,92.17
2018-10-11T02:34:47.154Z,92.32
2018-10-11T02:35:47.147Z,92.36
2018-10-11T02:36:47.139Z,92.17
2018-10-11T02:37:47.138Z,91.88
2018-10-11T02:38:47.375Z,92.36
2018-10-11T02:39:46.862Z,91.79
2018-10-11T02:40:47.105Z,92.36
2018-10-11T02:41:47.095Z,92.36
2018-10-11T02:42:47.086Z,92.17
2018-10-11T02:43:47.074Z,91.79
2018-10-11T02:44:47.114Z,91.79
2018-10-11T02:45:47.055Z,91.88
2018-10-11T02:46:47.049Z,91.6
2018-10-11T02:47:47.040Z,92.27
2018-10-11T02:48:47.039Z,91.79
2018-10-11T02:49:47.026Z,91.31
2018-10-11T02:50:47.014Z,91.6
2018-10-11T02:51:46.752Z,91.5
2018-10-11T02:52:46.999Z,91.5
2018-10-11T02:53:47.006Z,91.5
2018-10-11T02:54:46.978Z,91.6
2018-10-11T02:55:46.971Z,91.41
2018-10-11T02:56:46.962Z,91.6
2018-10-11T02:57:46.952Z,91.6
2018-10-11T02:58:46.695Z,91.6
2018-10-11T02:59:46.938Z,91.6
2018-10-11T03:00:46.929Z,91.6
2018-10-11T03:01:46.916Z,91.6
2018-10-11T03:02:46.659Z,91.79
2018-10-11T03:03:46.905Z,91.41
2018-10-11T03:04:46.889Z,91.46
2018-10-11T03:05:46.890Z,91.64
2018-10-11T03:06:46.875Z,91.41
2018-10-11T03:07:46.861Z,91.36
2018-10-11T03:08:46.854Z,91.6
2018-10-11T03:09:47.104Z,91.6
2018-10-11T03:10:46.841Z,91.5
2018-10-11T03:11:46.826Z,91.6
2018-10-11T03:12:46.821Z,91.31
2018-10-11T03:13:46.809Z,91.64
2018-10-11T03:14:46.801Z,91.64
2018-10-11T03:15:46.541Z,91.64
2018-10-11T03:16:46.787Z,91.55
2018-10-11T03:17:46.775Z,91.46
2018-10-11T03:18:46.768Z,91.64
2018-10-11T03:19:46.760Z,91.46
2018-10-11T03:20:46.752Z,91.55
2018-10-11T03:21:46.742Z,91.83
2018-10-11T03:22:46.736Z,91.64
2018-10-11T03:23:46.722Z,91.74
2018-10-11T03:24:46.713Z,91.64
2018-10-11T03:25:46.704Z,91.27
2018-10-11T03:26:46.697Z,91.07
2018-10-11T03:27:46.685Z,91.07
2018-10-11T03:28:46.680Z,91.27
2018-10-11T03:29:46.669Z,91.36
2018-10-11T03:30:46.673Z,91.55
2018-10-11T03:31:46.672Z,91.36
2018-10-11T03:32:46.640Z,91.46
2018-10-11T03:33:46.633Z,91.46
2018-10-11T03:34:46.630Z,91.17
2018-10-11T03:35:46.618Z,91.36
2018-10-11T03:36:46.607Z,91.55
2018-10-11T03:37:46.609Z,91.46
2018-10-11T03:38:46.592Z,91.55
2018-10-11T03:39:46.583Z,91.55
2018-10-11T03:40:46.574Z,91.36
2018-10-11T03:41:46.568Z,91.64
2018-10-11T03:42:46.558Z,91.17
2018-10-11T03:43:46.544Z,91.17
2018-10-11T03:44:46.538Z,91.17
2018-10-11T03:45:46.529Z,91.17
2018-10-11T03:46:46.531Z,91.17
2018-10-11T03:47:46.516Z,91.17
2018-10-11T03:48:46.252Z,91.36
2018-10-11T03:49:46.495Z,91.17
2018-10-11T03:50:46.518Z,91.36
2018-10-11T03:51:46.482Z,91.27
2018-10-11T03:52:46.468Z,91.36
2018-10-11T03:53:46.460Z,91.83
2018-10-11T03:54:46.454Z,91.36
2018-10-11T03:55:46.192Z,91.17
2018-10-11T03:56:46.435Z,91.27
2018-10-11T03:57:46.426Z,91.83
2018-10-11T03:58:46.420Z,91.36
2018-10-11T03:59:46.406Z,91.27
2018-10-11T04:00:46.399Z,91.36
2018-10-11T04:01:46.390Z,91.27
2018-10-11T04:02:46.382Z,91.83
2018-10-11T04:03:46.377Z,91.83
2018-10-11T04:04:46.410Z,91.64
2018-10-11T04:05:46.354Z,91.27
2018-10-11T04:06:46.349Z,91.27
2018-10-11T04:07:46.337Z,91.36
2018-10-11T04:08:46.333Z,91.83
2018-10-11T04:09:46.329Z,91.74
2018-10-11T04:10:46.311Z,91.64
2018-10-11T04:11:46.052Z,91.74
2018-10-11T04:12:46.300Z,91.69
2018-10-11T04:13:46.033Z,91.69
2018-10-11T04:14:46.024Z,91.69
2018-10-11T04:15:46.476Z,91.69
2018-10-11T04:16:46.259Z,91.31
2018-10-11T04:17:46.249Z,91.79
2018-10-11T04:18:46.243Z,91.6
2018-10-11T04:19:45.980Z,91.79
2018-10-11T04:20:46.223Z,91.79
2018-10-11T04:21:46.224Z,91.5
2018-10-11T04:22:46.207Z,91.88
2018-10-11T04:23:46.198Z,91.79
2018-10-11T04:24:46.196Z,91.79
2018-10-11T04:25:46.180Z,91.79
2018-10-11T04:26:46.171Z,91.98
2018-10-11T04:27:45.910Z,91.79
2018-10-11T04:28:46.157Z,91.79
2018-10-11T04:29:46.146Z,91.79
2018-10-11T04:30:46.137Z,91.6
2018-10-11T04:31:46.124Z,91.69
2018-10-11T04:32:46.120Z,91.69
2018-10-11T04:33:46.107Z,91.6
2018-10-11T04:34:45.846Z,91.31
2018-10-11T04:35:46.088Z,91.41
2018-10-11T04:36:46.084Z,91.6
2018-10-11T04:37:46.080Z,91.6
2018-10-11T04:38:46.065Z,91.69
2018-10-11T04:39:46.053Z,91.41
2018-10-11T04:40:46.047Z,91.6
2018-10-11T04:41:46.039Z,91.41
2018-10-11T04:42:46.209Z,91.41
2018-10-11T04:43:46.023Z,91.41
2018-10-11T04:44:46.009Z,91.6
2018-10-11T04:45:46.007Z,91.6
2018-10-11T04:46:45.990Z,91.6
2018-10-11T04:47:45.984Z,91.31
2018-10-11T04:48:45.973Z,91.41
2018-10-11T04:49:45.964Z,91.41
2018-10-11T04:50:45.953Z,91.31
2018-10-11T04:51:45.692Z,92.08
2018-10-11T04:52:45.943Z,91.6
2018-10-11T04:53:46.079Z,91.6
2018-10-11T04:54:45.665Z,91.6
2018-10-11T04:55:45.918Z,91.41
2018-10-11T04:56:45.902Z,91.55
2018-10-11T04:57:45.890Z,91.94
2018-10-11T04:58:45.882Z,91.98
2018-10-11T04:59:46.049Z,92.17
2018-10-11T05:00:45.865Z,91.88
2018-10-11T05:01:45.856Z,91.5
2018-10-11T05:02:45.847Z,91.41
2018-10-11T05:03:45.835Z,91.98
2018-10-11T05:04:45.826Z,92.08
2018-10-11T05:05:45.566Z,92.17
2018-10-11T05:06:45.808Z,91.98
2018-10-11T05:07:45.801Z,91.41
2018-10-11T05:08:45.791Z,91.41
2018-10-11T05:09:45.783Z,91.22
2018-10-11T05:10:45.772Z,91.6
2018-10-11T05:11:45.764Z,91.41
2018-10-11T05:12:45.758Z,91.6
2018-10-11T05:13:45.745Z,91.6
2018-10-11T05:14:45.736Z,91.41
2018-10-11T05:15:45.730Z,91.5
2018-10-11T05:16:45.719Z,91.31
2018-10-11T05:17:45.711Z,91.31
2018-10-11T05:18:45.698Z,91.41
2018-10-11T05:19:45.692Z,91.41
2018-10-11T05:20:45.680Z,91.31
2018-10-11T05:21:45.671Z,91.69
2018-10-11T05:22:45.666Z,91.69
2018-10-11T05:23:45.652Z,91.6
2018-10-11T05:24:45.392Z,91.6
2018-10-11T05:25:45.635Z,91.79
2018-10-11T05:26:45.625Z,91.69
2018-10-11T05:27:45.617Z,91.6
2018-10-11T05:28:45.627Z,91.6
2018-10-11T05:29:45.633Z,91.5
2018-10-11T05:30:45.339Z,91.5
2018-10-11T05:31:45.579Z,91.5
2018-10-11T05:32:45.584Z,91.41
2018-10-11T05:33:45.564Z,91.22
2018-10-11T05:34:45.556Z,91.5
2018-10-11T05:35:45.547Z,91.41
2018-10-11T05:36:45.536Z,91.5
2018-10-11T05:37:45.526Z,91.31
2018-10-11T05:38:45.519Z,91.31
2018-10-11T05:39:45.517Z,91.41
2018-10-11T05:40:45.505Z,91.22
2018-10-11T05:41:45.488Z,91.5
2018-10-11T05:42:45.235Z,91.5
2018-10-11T05:43:45.479Z,91.6
2018-10-11T05:44:45.464Z,91.55
2018-10-11T05:45:45.459Z,91.64
2018-10-11T05:46:45.446Z,91.55
2018-10-11T05:47:45.437Z,91.55
2018-10-11T05:48:45.429Z,91.27
2018-10-11T05:49:45.419Z,91.36
2018-10-11T05:50:45.160Z,91.27
2018-10-11T05:51:45.148Z,91.17
2018-10-11T05:52:45.395Z,91.55
2018-10-11T05:53:45.385Z,91.27
2018-10-11T05:54:45.382Z,91.17
2018-10-11T05:55:45.116Z,91.69
2018-10-11T05:56:45.593Z,91.31
2018-10-11T05:57:45.350Z,90.93
2018-10-11T05:58:45.343Z,91.21
2018-10-11T05:59:45.340Z,90.93
2018-10-11T06:00:45.329Z,91.36
2018-10-11T06:01:45.321Z,91.36
2018-10-11T06:02:45.325Z,90.88
2018-10-11T06:03:45.310Z,91.83
2018-10-11T06:04:45.297Z,91.45
2018-10-11T06:05:45.037Z,92.12
2018-10-11T06:06:45.281Z,92.45
2018-10-11T06:07:45.272Z,91.97
2018-10-11T06:08:45.266Z,92.16
2018-10-11T06:09:45.257Z,92.45
2018-10-11T06:10:45.251Z,92.5
2018-10-11T06:11:45.290Z,92.69
2018-10-11T06:12:45.241Z,92.5
2018-10-11T06:13:45.229Z,92.02
2018-10-11T06:14:45.223Z,92.45
2018-10-11T06:15:45.229Z,92.54
2018-10-11T06:16:45.503Z,92.45
2018-10-11T06:17:45.337Z,92.74
2018-10-11T06:18:45.195Z,91.88
2018-10-11T06:19:45.189Z,91.88
2018-10-11T06:20:45.183Z,92.3
2018-10-11T06:21:45.176Z,91.63
2018-10-11T06:22:45.181Z,91.25
2018-10-11T06:23:45.165Z,91.83
2018-10-11T06:24:45.350Z,91.68
2018-10-11T06:25:45.154Z,90.91
2018-10-11T06:26:45.147Z,90.82
2018-10-11T06:27:45.142Z,90.34
2018-10-11T06:28:45.135Z,90.34
2018-10-11T06:29:45.131Z,90.39
2018-10-11T06:30:45.134Z,90.48
2018-10-11T06:31:45.120Z,89.81
2018-10-11T06:32:45.113Z,89.72
2018-10-11T06:33:45.107Z,89.23
2018-10-11T06:34:44.853Z,89.09
2018-10-11T06:35:45.221Z,88.9
2018-10-11T06:36:45.269Z,88.99
2018-10-11T06:37:45.088Z,88.7
2018-10-11T06:38:45.084Z,88.23
2018-10-11T06:39:45.079Z,88.27
2018-10-11T06:40:45.075Z,87.88
2018-10-11T06:41:45.124Z,87.7
2018-10-11T06:42:45.430Z,88.17
2018-10-11T06:43:45.069Z,87.7
2018-10-11T06:44:45.059Z,87.21
2018-10-11T06:45:45.059Z,87.35
2018-10-11T06:46:45.051Z,87.07
2018-10-11T06:47:45.296Z,86.78
2018-10-11T06:48:45.050Z,86.4
2018-10-11T06:49:45.112Z,86.78
2018-10-11T06:50:45.042Z,86.68
2018-10-11T06:51:45.033Z,86.4
2018-10-11T06:52:45.037Z,86.78
2018-10-11T06:53:45.028Z,86.58
2018-10-11T06:54:45.025Z,86.21
2018-10-11T06:55:45.030Z,86.21
2018-10-11T06:56:45.019Z,86.44
2018-10-11T06:57:45.017Z,86.05
2018-10-11T06:58:44.760Z,85.58
2018-10-11T06:59:45.011Z,85.58
2018-10-11T07:00:45.008Z,85.19
2018-10-11T07:01:45.147Z,85.28
2018-10-11T07:02:45.005Z,85.1
2018-10-11T07:03:45.000Z,84.61
2018-10-11T07:04:44.995Z,84.66
2018-10-11T07:05:44.993Z,84.47
2018-10-11T07:06:44.992Z,84.27
2018-10-11T07:07:44.991Z,83.89
2018-10-11T07:08:44.733Z,83.7
2018-10-11T07:09:44.731Z,84.08
2018-10-11T07:10:44.985Z,83.89
2018-10-11T07:11:44.978Z,83.8
2018-10-11T07:12:44.978Z,83.98
2018-10-11T07:13:45.011Z,83.89
2018-10-11T07:14:44.971Z,83.6
2018-10-11T07:15:44.716Z,83.7
2018-10-11T07:16:44.971Z,83.8
2018-10-11T07:17:44.967Z,83.7
2018-10-11T07:18:44.968Z,83.6
2018-10-11T07:19:44.965Z,83.8
2018-10-11T07:20:44.963Z,84.18
2018-10-11T07:21:44.957Z,84.27
2018-10-11T07:22:44.954Z,84.08
2018-10-11T07:23:44.952Z,84.18
2018-10-11T07:24:44.950Z,83.98
2018-10-11T07:25:44.984Z,84.37
2018-10-11T07:26:44.693Z,84.27
2018-10-11T07:27:44.692Z,84.18
2018-10-11T07:28:44.956Z,84.37
2018-10-11T07:29:44.943Z,84.85
2018-10-11T07:30:44.936Z,84.56
2018-10-11T07:31:44.936Z,84.95
2018-10-11T07:32:44.940Z,85.19
2018-10-11T07:33:44.931Z,84.91
2018-10-11T07:34:45.191Z,84.71
2018-10-11T07:35:44.675Z,85.28
2018-10-11T07:36:44.677Z,85.1
2018-10-11T07:37:44.671Z,85.58
2018-10-11T07:38:44.666Z,85.77
2018-10-11T07:39:44.665Z,85.58
2018-10-11T07:40:45.033Z,85.48
2018-10-11T07:41:44.916Z,85.96
2018-10-11T07:42:44.912Z,85.77
2018-10-11T07:43:44.907Z,85.58
2018-10-11T07:44:44.902Z,85.67
2018-10-11T07:45:44.903Z,85.28
2018-10-11T07:46:44.896Z,85.86
2018-10-11T07:47:44.642Z,85.48
2018-10-11T07:48:44.897Z,85.48
2018-10-11T07:49:44.890Z,85.58
2018-10-11T07:50:44.884Z,85.77
2018-10-11T07:51:44.879Z,85.96
2018-10-11T07:52:44.931Z,85.67
2018-10-11T07:53:44.874Z,85.86
2018-10-11T07:54:44.877Z,85.67
2018-10-11T07:55:44.865Z,85.77
2018-10-11T07:56:44.863Z,85.48
2018-10-11T07:57:44.856Z,85.58
2018-10-11T07:58:44.852Z,85.58
2018-10-11T07:59:44.909Z,85.58
2018-10-11T08:00:44.842Z,85.77
2018-10-11T08:01:44.626Z,85.48
2018-10-11T08:02:44.846Z,85.77
2018-10-11T08:03:44.828Z,85.48
2018-10-11T08:04:44.829Z,86.15
2018-10-11T08:05:44.831Z,85.58
2018-10-11T08:06:44.821Z,85.67
2018-10-11T08:07:45.092Z,85.96
2018-10-11T08:08:44.807Z,85.58
2018-10-11T08:09:44.805Z,85.86
2018-10-11T08:10:45.078Z,85.86
2018-10-11T08:11:45.174Z,85.38
2018-10-11T08:12:44.792Z,85.28
2018-10-11T08:13:45.007Z,85.38
2018-10-11T08:14:44.783Z,83.75
2018-10-11T08:15:44.781Z,84.81
2018-10-11T08:16:45.108Z,84.61
2018-10-11T08:17:45.867Z,84.27
2018-10-11T08:18:45.012Z,84.27
2018-10-11T08:19:44.870Z,84.37
2018-10-11T08:20:44.756Z,83.98
2018-10-11T08:21:45.077Z,84.18
2018-10-11T08:22:44.750Z,84.27
2018-10-11T08:23:44.748Z,83.98
2018-10-11T08:24:45.060Z,83.41
2018-10-11T08:25:45.664Z,83.8
2018-10-11T08:26:44.881Z,83.89
2018-10-11T08:27:44.726Z,83.8
2018-10-11T08:28:44.719Z,83.41
2018-10-11T08:29:44.719Z,83.7
2018-10-11T08:30:44.716Z,83.26
2018-10-11T08:31:44.963Z,83.74
2018-10-11T08:32:45.103Z,83.54
2018-10-11T08:33:44.700Z,83.36
2018-10-11T08:34:44.697Z,83.36
2018-10-11T08:35:44.694Z,82.78
2018-10-11T08:36:44.691Z,82.59
2018-10-11T08:37:44.964Z,82.59
2018-10-11T08:38:44.843Z,83.4
2018-10-11T08:39:44.672Z,82.97
2018-10-11T08:40:44.673Z,82.24
2018-10-11T08:41:44.670Z,81.96
2018-10-11T08:42:44.660Z,82.24
2018-10-11T08:43:44.747Z,81.76
2018-10-11T08:44:44.400Z,81.67
2018-10-11T08:45:44.651Z,81.67
2018-10-11T08:46:44.644Z,81.48
2018-10-11T08:47:44.640Z,81.48
2018-10-11T08:48:44.641Z,81.04
2018-10-11T08:49:44.635Z,80.27
2018-10-11T08:50:44.471Z,80.65
2018-10-11T08:51:44.627Z,80.27
2018-10-11T08:52:44.620Z,80.17
2018-10-11T08:53:44.820Z,79.73
2018-10-11T08:54:44.612Z,79.05
2018-10-11T08:55:45.037Z,79.25
2018-10-11T08:56:44.609Z,78.58
2018-10-11T08:57:44.603Z,78.67
2018-10-11T08:58:44.599Z,77.71
2018-10-11T08:59:44.909Z,77.81
2018-10-11T09:00:44.592Z,77.65
2018-10-11T09:01:44.595Z,77.26
2018-10-11T09:02:44.582Z,77.26
2018-10-11T09:03:44.991Z,76.78
2018-10-11T09:04:44.324Z,76.88
2018-10-11T09:05:44.574Z,76.98
2018-10-11T09:06:44.567Z,75.73
2018-10-11T09:07:44.590Z,76.21
2018-10-11T09:08:44.316Z,76.11
2018-10-11T09:09:44.762Z,76.34
2018-10-11T09:10:44.661Z,75.48
2018-10-11T09:11:44.560Z,75.57
2018-10-11T09:12:44.550Z,75.28
2018-10-11T09:13:44.548Z,75.19
2018-10-11T09:14:44.291Z,75.28
2018-10-11T09:15:44.543Z,74.8
2018-10-11T09:16:44.548Z,74.32
2018-10-11T09:17:44.533Z,74.22
2018-10-11T09:18:44.535Z,73.36
2018-10-11T09:19:44.525Z,73.46
2018-10-11T09:20:44.528Z,73.07
2018-10-11T09:21:44.268Z,73.3
2018-10-11T09:22:44.266Z,73.39
2018-10-11T09:23:44.266Z,72.81
2018-10-11T09:24:44.515Z,72.24
2018-10-11T09:25:44.257Z,72.53
2018-10-11T09:26:44.512Z,72.24
2018-10-11T09:27:44.506Z,72.43
2018-10-11T09:28:44.247Z,72.14
2018-10-11T09:29:44.507Z,72.63
2018-10-11T09:30:44.496Z,71.85
2018-10-11T09:31:44.493Z,71.56
2018-10-11T09:32:44.712Z,71.76
2018-10-11T09:33:44.492Z,71.95
2018-10-11T09:34:44.482Z,71.76
2018-10-11T09:35:44.479Z,71.76
2018-10-11T09:36:44.478Z,71.76
2018-10-11T09:37:44.474Z,71.37
2018-10-11T09:38:44.472Z,71.66
2018-10-11T09:39:44.469Z,72.05
2018-10-11T09:40:44.465Z,71.76
2018-10-11T09:41:44.468Z,71.95
2018-10-11T09:42:44.464Z,71.66
2018-10-11T09:43:44.460Z,71.76
2018-10-11T09:44:44.455Z,71.28
2018-10-11T09:45:44.451Z,71.66
2018-10-11T09:46:44.456Z,71.76
2018-10-11T09:47:44.194Z,72.05
2018-10-11T09:48:44.464Z,71.5
2018-10-11T09:49:44.443Z,71.66
2018-10-11T09:50:44.441Z,70.83
2018-10-11T09:51:44.433Z,70.64
2018-10-11T09:52:44.433Z,71.02
2018-10-11T09:53:44.433Z,71.02
2018-10-11T09:54:44.536Z,70.44
2018-10-11T09:55:44.428Z,70.83
2018-10-11T09:56:44.423Z,70.83
2018-10-11T09:57:44.418Z,70.44
2018-10-11T09:58:44.419Z,70.73
2018-10-11T09:59:44.411Z,70.54
2018-10-11T10:00:44.463Z,69.96
2018-10-11T10:01:44.408Z,71.12
2018-10-11T10:02:44.406Z,70.25
2018-10-11T10:03:44.403Z,70.15
2018-10-11T10:04:44.401Z,69.96
2018-10-11T10:05:44.143Z,69.77
2018-10-11T10:06:44.396Z,69.57
2018-10-11T10:07:44.399Z,69.77
2018-10-11T10:08:44.394Z,69.48
2018-10-11T10:09:44.154Z,69.57
2018-10-11T10:10:44.130Z,68.9
2018-10-11T10:11:44.381Z,68.99
2018-10-11T10:12:44.718Z,68.9
2018-10-11T10:13:44.379Z,68.8
2018-10-11T10:14:44.119Z,68.9
2018-10-11T10:15:44.670Z,68.35
2018-10-11T10:16:44.369Z,68.26
2018-10-11T10:17:44.371Z,68.35
2018-10-11T10:18:44.109Z,68.45
2018-10-11T10:19:44.364Z,68.55
2018-10-11T10:20:44.392Z,68.16
2018-10-11T10:21:44.728Z,67.58
2018-10-11T10:22:44.351Z,67.68
2018-10-11T10:23:44.352Z,68.07
2018-10-11T10:24:44.346Z,67.68
2018-10-11T10:25:44.596Z,67.3
2018-10-11T10:26:44.112Z,67.49
2018-10-11T10:27:44.340Z,67
2018-10-11T10:28:44.085Z,67
2018-10-11T10:29:44.335Z,66.91
2018-10-11T10:30:44.081Z,67.2
2018-10-11T10:31:44.333Z,66.82
2018-10-11T10:32:44.328Z,66.82
2018-10-11T10:33:44.326Z,66.72
2018-10-11T10:34:44.325Z,66.62
2018-10-11T10:35:44.321Z,66.43
2018-10-11T10:36:44.120Z,66.14
2018-10-11T10:37:44.313Z,66.04
2018-10-11T10:38:44.310Z,66.24
2018-10-11T10:39:44.393Z,66.43
2018-10-11T10:40:44.057Z,65.95
2018-10-11T10:41:44.306Z,66.14
2018-10-11T10:42:44.303Z,65.95
2018-10-11T10:43:44.047Z,66.43
2018-10-11T10:44:44.298Z,66.24
2018-10-11T10:45:44.294Z,66.43
2018-10-11T10:46:44.043Z,65.95
2018-10-11T10:47:44.288Z,66.04
2018-10-11T10:48:44.333Z,65.95
2018-10-11T10:49:44.286Z,66.04
2018-10-11T10:50:44.283Z,65.75
2018-10-11T10:51:44.280Z,65.17
2018-10-11T10:52:44.281Z,65.37
2018-10-11T10:53:44.277Z,66.33
2018-10-11T10:54:44.272Z,66.52
2018-10-11T10:55:44.275Z,66.33
2018-10-11T10:56:44.522Z,66.04
2018-10-11T10:57:44.267Z,66.24
2018-10-11T10:58:44.263Z,65.69
2018-10-11T10:59:44.265Z,65.5
2018-10-11T11:00:44.265Z,65.78
2018-10-11T11:01:44.259Z,65.2
2018-10-11T11:02:44.255Z,64.72
2018-10-11T11:03:44.002Z,64.15
2018-10-11T11:04:44.250Z,64.72
2018-10-11T11:05:44.249Z,64.72
2018-10-11T11:06:44.244Z,64.72
2018-10-11T11:07:44.241Z,64.43
2018-10-11T11:08:44.245Z,64.72
2018-10-11T11:09:44.244Z,64.82
2018-10-11T11:10:44.235Z,64.92
2018-10-11T11:11:44.234Z,65.11
2018-10-11T11:12:44.234Z,64.72
2018-10-11T11:13:44.479Z,64.92
2018-10-11T11:14:43.975Z,64.05
2018-10-11T11:15:44.230Z,64.72
2018-10-11T11:16:44.223Z,64.34
2018-10-11T11:17:44.224Z,64.92
2018-10-11T11:18:43.995Z,64.95
2018-10-11T11:19:44.220Z,64.34
2018-10-11T11:20:44.217Z,63.5
2018-10-11T11:21:43.961Z,63.79
2018-10-11T11:22:43.958Z,63.6
2018-10-11T11:23:44.213Z,63.6
2018-10-11T11:24:44.207Z,64.18
2018-10-11T11:25:44.207Z,63.89
2018-10-11T11:26:44.202Z,63.6
2018-10-11T11:27:44.206Z,64.18
2018-10-11T11:28:44.198Z,64.28
2018-10-11T11:29:44.210Z,64.18
2018-10-11T11:30:43.943Z,63.4
2018-10-11T11:31:43.940Z,63.4
2018-10-11T11:32:43.938Z,63.7
2018-10-11T11:33:43.936Z,62.63
2018-10-11T11:34:44.187Z,63.02
2018-10-11T11:35:44.189Z,62.44
2018-10-11T11:36:44.188Z,62.15
2018-10-11T11:37:44.180Z,61.89
2018-10-11T11:38:44.177Z,61.67
2018-10-11T11:39:44.175Z,61.86
2018-10-11T11:40:43.923Z,62.63
2018-10-11T11:41:44.178Z,62.25
2018-10-11T11:42:44.173Z,62.34
2018-10-11T11:43:44.171Z,62.37
2018-10-11T11:44:44.169Z,61.67
2018-10-11T11:45:44.277Z,61.28
2018-10-11T11:46:44.233Z,61.6
2018-10-11T11:47:43.911Z,61.99
2018-10-11T11:48:44.165Z,62.47
2018-10-11T11:49:44.159Z,61.89
2018-10-11T11:50:43.904Z,62.57
2018-10-11T11:51:44.157Z,61.8
2018-10-11T11:52:44.153Z,61.7
2018-10-11T11:53:44.151Z,61.51
2018-10-11T11:54:44.150Z,61.31
2018-10-11T11:55:44.154Z,61.12
2018-10-11T11:56:44.161Z,60.54
2018-10-11T11:57:44.143Z,60.83
2018-10-11T11:58:44.143Z,61.31
2018-10-11T11:59:44.139Z,61.02
2018-10-11T12:00:44.137Z,60.54
2018-10-11T12:01:44.141Z,60.73
2018-10-11T12:02:44.255Z,60.64
2018-10-11T12:03:44.133Z,60.35
2018-10-11T12:04:44.130Z,60.25
2018-10-11T12:05:43.877Z,60.28
2018-10-11T12:06:44.129Z,59.86
2018-10-11T12:07:44.130Z,59.6
2018-10-11T12:08:44.124Z,59.6
2018-10-11T12:09:44.124Z,59.6
2018-10-11T12:10:43.901Z,59.89
2018-10-11T12:11:44.123Z,59.8
2018-10-11T12:12:44.119Z,59.8
2018-10-11T12:13:44.117Z,59.89
2018-10-11T12:14:44.119Z,59.89
2018-10-11T12:15:43.865Z,59.12
2018-10-11T12:16:44.433Z,59.22
2018-10-11T12:17:44.112Z,58.83
2018-10-11T12:18:44.111Z,58.64
2018-10-11T12:19:44.110Z,59.12
2018-10-11T12:20:44.207Z,59.22
2018-10-11T12:21:44.112Z,58.35
2018-10-11T12:22:44.110Z,58.06
2018-10-11T12:23:44.104Z,58.25
2018-10-11T12:24:43.887Z,58.35
2018-10-11T12:25:43.868Z,57.38
2018-10-11T12:26:44.102Z,57.57
2018-10-11T12:27:44.102Z,58.09
2018-10-11T12:28:44.511Z,57.87
2018-10-11T12:29:44.097Z,57.31
2018-10-11T12:30:43.841Z,56.83
2018-10-11T12:31:44.090Z,57.31
2018-10-11T12:32:44.092Z,57.31
2018-10-11T12:33:44.087Z,57.03
2018-10-11T12:34:44.089Z,57.03
2018-10-11T12:35:43.833Z,57.12
2018-10-11T12:36:44.089Z,57.03
2018-10-11T12:37:44.222Z,56.63
2018-10-11T12:38:44.214Z,56.63
2018-10-11T12:39:44.079Z,56.63
2018-10-11T12:40:43.827Z,56.54
2018-10-11T12:41:44.093Z,55.87
2018-10-11T12:42:43.829Z,55.96
2018-10-11T12:43:44.077Z,55.96
2018-10-11T12:44:44.075Z,55.57
2018-10-11T12:45:44.144Z,55.77
2018-10-11T12:46:44.563Z,55.47
2018-10-11T12:47:44.084Z,55.47
2018-10-11T12:48:44.067Z,55.67
2018-10-11T12:49:47.448Z,56.25
2018-10-11T12:50:44.120Z,55.77
2018-10-11T12:51:44.270Z,56.57
2018-10-11T12:52:44.064Z,56.18
2018-10-11T12:53:48.632Z,55.79
2018-10-11T12:54:43.815Z,55.79
2018-10-11T12:55:44.079Z,55.99
2018-10-11T12:56:44.466Z,55.7